createdAt,value
2019-05-28T00:01:42.092Z,15.77
2019-05-28T00:04:11.817Z,15.50
2019-05-28T00:06:41.590Z,14.90
2019-05-28T00:09:11.368Z,15.53
2019-05-28T00:11:41.148Z,15.77
2019-05-28T00:14:10.857Z,16.13
2019-05-28T00:16:40.661Z,16.70
2019-05-28T00:19:10.388Z,16.20
2019-05-28T00:21:40.148Z,17.60
2019-05-28T00:24:09.832Z,17.37
2019-05-28T00:26:39.578Z,17.20
2019-05-28T00:29:09.315Z,18.50
2019-05-28T00:31:39.033Z,18.10
2019-05-28T00:34:08.801Z,17.47
2019-05-28T00:36:38.491Z,18.67
2019-05-28T00:39:09.016Z,17.03
2019-05-28T00:41:38.766Z,18.20
2019-05-28T00:44:08.963Z,19.03
2019-05-28T00:46:38.673Z,20.07
2019-05-28T00:49:08.395Z,19.57
2019-05-28T00:51:38.804Z,19.33
2019-05-28T00:54:08.628Z,19.23
2019-05-28T00:56:38.788Z,19.97
2019-05-28T00:59:09.002Z,19.43
2019-05-28T01:01:38.765Z,19.87
2019-05-28T01:04:08.477Z,20.17
2019-05-28T01:06:38.164Z,19.83
2019-05-28T01:09:09.053Z,18.93
2019-05-28T01:11:38.752Z,20.77
2019-05-28T01:14:08.456Z,20.53
2019-05-28T01:16:38.165Z,20.80
2019-05-28T01:19:07.963Z,21.00
2019-05-28T01:21:37.673Z,20.67
2019-05-28T01:24:07.376Z,20.80
2019-05-28T01:26:37.127Z,22.33
2019-05-28T01:29:06.865Z,20.33
2019-05-28T01:31:36.645Z,21.70
2019-05-28T01:34:06.356Z,21.00
2019-05-28T01:36:36.144Z,20.50
2019-05-28T01:39:08.212Z,21.00
2019-05-28T01:41:37.921Z,20.70
2019-05-28T01:44:07.661Z,20.87
2019-05-28T01:46:37.405Z,20.03
2019-05-28T01:49:07.112Z,20.47
2019-05-28T01:51:36.823Z,20.73
2019-05-28T01:54:06.554Z,20.93
2019-05-28T01:56:36.329Z,20.73
2019-05-28T01:59:06.045Z,21.83
2019-05-28T02:01:35.821Z,21.17
2019-05-28T02:04:07.332Z,21.10
2019-05-28T02:06:37.061Z,20.43
2019-05-28T02:09:08.218Z,18.50
2019-05-28T02:11:37.937Z,17.73
2019-05-28T02:14:07.721Z,19.47
2019-05-28T02:16:37.449Z,20.30
2019-05-28T02:19:07.159Z,19.03
2019-05-28T02:21:36.878Z,19.13
2019-05-28T02:24:06.734Z,19.10
2019-05-28T02:26:36.457Z,20.83
2019-05-28T02:29:06.217Z,19.70
2019-05-28T02:31:35.908Z,19.73
2019-05-28T02:34:05.785Z,21.47
2019-05-28T02:36:35.490Z,20.57
2019-05-28T02:39:07.831Z,21.43
2019-05-28T02:41:37.786Z,20.50
2019-05-28T02:44:07.638Z,21.30
2019-05-28T02:46:37.512Z,21.60
2019-05-28T02:49:07.229Z,20.07
2019-05-28T02:51:37.335Z,21.77
2019-05-28T02:54:07.172Z,21.00
2019-05-28T02:56:37.114Z,21.33
2019-05-28T02:59:08.355Z,20.87
2019-05-28T03:01:44.533Z,19.97
2019-05-28T03:04:10.784Z,19.23
2019-05-28T03:06:42.019Z,19.50
2019-05-28T03:09:11.732Z,20.13
2019-05-28T03:11:41.429Z,19.93
2019-05-28T03:14:11.175Z,18.97
2019-05-28T03:16:43.798Z,18.97
2019-05-28T03:19:14.824Z,18.80
2019-05-28T03:21:45.788Z,19.00
2019-05-28T03:24:18.011Z,19.40
2019-05-28T03:26:47.732Z,19.80
2019-05-28T03:29:17.543Z,19.03
2019-05-28T03:32:06.121Z,20.73
2019-05-28T03:34:18.564Z,21.33
2019-05-28T03:36:49.227Z,22.67
2019-05-28T03:39:19.073Z,21.93
2019-05-28T03:41:48.792Z,21.40
2019-05-28T03:44:18.539Z,21.67
2019-05-28T03:46:48.263Z,22.13
2019-05-28T03:49:18.028Z,21.77
2019-05-28T03:51:47.736Z,22.37
2019-05-28T03:54:17.453Z,21.63
2019-05-28T03:56:47.175Z,22.40
2019-05-28T03:59:16.868Z,22.93
2019-05-28T04:01:46.601Z,21.83
2019-05-28T04:04:16.301Z,21.53
2019-05-28T04:06:46.048Z,21.97
2019-05-28T04:09:15.777Z,21.97
2019-05-28T04:11:45.575Z,20.83
2019-05-28T04:14:15.329Z,21.70
2019-05-28T04:16:45.042Z,22.00
2019-05-28T04:19:14.805Z,20.93
2019-05-28T04:21:44.518Z,21.73
2019-05-28T04:24:14.260Z,22.23
2019-05-28T04:26:43.939Z,22.43
2019-05-28T04:29:13.677Z,21.17
2019-05-28T04:31:43.407Z,21.73
2019-05-28T04:34:13.121Z,19.87
2019-05-28T04:36:42.817Z,19.57
2019-05-28T04:39:12.542Z,19.90
2019-05-28T04:41:42.301Z,21.00
2019-05-28T04:44:12.087Z,19.97
2019-05-28T04:46:41.786Z,20.63
2019-05-28T04:49:11.471Z,21.00
2019-05-28T04:51:41.210Z,19.97
2019-05-28T04:54:10.917Z,19.77
2019-05-28T04:56:40.624Z,19.80
2019-05-28T04:59:10.427Z,19.67
2019-05-28T05:01:40.115Z,19.30
2019-05-28T05:04:09.946Z,19.33
2019-05-28T05:06:39.868Z,19.37
2019-05-28T05:09:09.573Z,18.27
2019-05-28T05:11:39.867Z,18.97
2019-05-28T05:14:11.160Z,17.40
2019-05-28T05:16:40.959Z,16.83
2019-05-28T05:19:12.466Z,18.83
2019-05-28T05:21:42.300Z,18.27
2019-05-28T05:24:11.983Z,18.53
2019-05-28T05:26:41.762Z,18.00
2019-05-28T05:29:11.493Z,17.73
2019-05-28T05:31:41.250Z,17.63
2019-05-28T05:34:11.025Z,18.50
2019-05-28T05:36:40.777Z,17.80
2019-05-28T05:39:10.514Z,18.07
2019-05-28T05:41:43.393Z,16.03
2019-05-28T05:44:13.105Z,15.60
2019-05-28T05:46:42.928Z,16.13
2019-05-28T05:49:12.650Z,15.60
2019-05-28T05:51:42.325Z,15.23
2019-05-28T05:54:12.092Z,14.67
2019-05-28T05:56:41.877Z,15.07
2019-05-28T05:59:14.631Z,14.10
2019-05-28T06:01:44.394Z,14.57
2019-05-28T06:04:14.145Z,14.17
2019-05-28T06:06:43.936Z,13.23
2019-05-28T06:09:13.644Z,12.77
2019-05-28T06:11:43.340Z,13.27
2019-05-28T06:14:13.108Z,11.43
2019-05-28T06:16:42.812Z,11.93
2019-05-28T06:19:12.553Z,10.90
2019-05-28T06:21:42.300Z,10.77
2019-05-28T06:24:12.174Z,10.57
2019-05-28T06:26:41.924Z,10.83
2019-05-28T06:29:11.682Z,10.80
2019-05-28T06:31:41.397Z,10.00
2019-05-28T06:34:11.178Z,10.40
2019-05-28T06:36:40.924Z,9.78
2019-05-28T06:39:10.665Z,10.82
2019-05-28T06:41:40.390Z,9.65
2019-05-28T06:44:10.162Z,9.73
2019-05-28T06:46:39.959Z,9.60
2019-05-28T06:49:09.709Z,8.80
2019-05-28T06:51:39.456Z,10.03
2019-05-28T06:54:11.722Z,9.45
2019-05-28T06:56:40.497Z,9.58
2019-05-28T06:59:10.225Z,8.95
2019-05-28T07:01:39.963Z,9.98
2019-05-28T07:04:13.857Z,9.78
2019-05-28T07:06:42.961Z,9.00
2019-05-28T07:09:12.716Z,8.50
2019-05-28T07:11:42.459Z,8.95
2019-05-28T07:14:12.202Z,8.50
2019-05-28T07:16:52.895Z,8.45
2019-05-28T07:19:23.916Z,8.73
2019-05-28T07:21:44.875Z,9.30
2019-05-28T07:24:14.782Z,9.30
2019-05-28T07:26:44.560Z,9.30
2019-05-28T07:29:14.333Z,9.25
2019-05-28T07:31:44.053Z,8.83
2019-05-28T07:34:29.281Z,8.60
2019-05-28T07:36:45.225Z,9.60
2019-05-28T07:39:14.935Z,9.15
2019-05-28T07:41:44.686Z,9.15
2019-05-28T07:44:15.081Z,8.93
2019-05-28T07:46:44.812Z,9.33
2019-05-28T07:49:14.554Z,9.05
2019-05-28T07:51:44.309Z,9.00
2019-05-28T07:54:14.066Z,9.10
2019-05-28T07:56:43.767Z,9.08
2019-05-28T07:59:13.522Z,8.78
2019-05-28T08:01:43.410Z,9.23
2019-05-28T08:04:13.213Z,9.00
2019-05-28T08:06:54.241Z,10.03
2019-05-28T08:09:14.357Z,9.25
2019-05-28T08:11:44.130Z,9.00
2019-05-28T08:14:13.846Z,9.20
2019-05-28T08:16:52.245Z,9.40
2019-05-28T08:19:14.984Z,9.85
2019-05-28T08:21:44.965Z,9.68
2019-05-28T08:24:14.784Z,9.60
2019-05-28T08:26:44.505Z,9.90
2019-05-28T08:29:14.260Z,9.10
2019-05-28T08:31:43.974Z,8.30
2019-05-28T08:34:13.885Z,8.40
2019-05-28T08:36:43.732Z,8.98
2019-05-28T08:39:13.468Z,8.98
2019-05-28T08:41:43.247Z,8.15
2019-05-28T08:44:13.165Z,9.98
2019-05-28T08:46:42.924Z,9.43
2019-05-28T08:49:12.737Z,8.98
2019-05-28T08:51:44.102Z,10.03
2019-05-28T08:54:13.821Z,8.40
2019-05-28T08:56:43.589Z,8.68
2019-05-28T08:59:13.306Z,9.05
2019-05-28T09:01:43.026Z,7.83
2019-05-28T09:04:12.811Z,8.03
2019-05-28T09:06:42.569Z,7.78
2019-05-28T09:09:12.288Z,8.85
2019-05-28T09:11:41.990Z,8.55
2019-05-28T09:14:11.749Z,8.95
2019-05-28T09:16:41.457Z,8.70
2019-05-28T09:19:11.197Z,9.38
2019-05-28T09:21:40.972Z,9.03
2019-05-28T09:24:10.772Z,9.00
2019-05-28T09:26:40.466Z,9.03
2019-05-28T09:29:10.176Z,8.85
2019-05-28T09:31:40.034Z,9.03
2019-05-28T09:34:09.789Z,8.55
2019-05-28T09:36:39.603Z,8.45
2019-05-28T09:39:09.778Z,8.48
2019-05-28T09:41:39.489Z,8.55
2019-05-28T09:44:09.570Z,8.60
2019-05-28T09:46:39.381Z,9.08
2019-05-28T09:49:09.064Z,8.53
2019-05-28T09:51:38.792Z,9.03
2019-05-28T09:54:08.582Z,8.08
2019-05-28T09:56:38.389Z,8.55
2019-05-28T09:59:08.166Z,8.43
2019-05-28T10:01:37.979Z,9.10
2019-05-28T10:04:07.722Z,8.63
2019-05-28T10:06:39.668Z,8.65
2019-05-28T10:09:09.485Z,8.23
2019-05-28T10:11:39.252Z,8.78
2019-05-28T10:14:09.055Z,7.97
2019-05-28T10:16:38.748Z,7.60
2019-05-28T10:19:08.521Z,7.47
2019-05-28T10:21:38.249Z,8.03
2019-05-28T10:24:08.047Z,6.60
2019-05-28T10:26:37.811Z,6.12
2019-05-28T10:29:07.603Z,5.78
2019-05-28T10:31:37.326Z,5.67
2019-05-28T10:34:07.068Z,5.33
2019-05-28T10:36:38.100Z,6.30
2019-05-28T10:39:09.030Z,6.03
2019-05-28T10:41:38.728Z,5.70
2019-05-28T10:44:08.452Z,5.40
2019-05-28T10:46:38.189Z,5.97
2019-05-28T10:49:07.945Z,4.95
2019-05-28T10:51:38.658Z,5.60
2019-05-28T10:54:08.359Z,5.92
2019-05-28T10:56:38.089Z,5.60
2019-05-28T10:59:07.841Z,5.80
2019-05-28T11:01:37.548Z,5.72
2019-05-28T11:04:07.280Z,5.70
2019-05-28T11:06:50.959Z,5.67
2019-05-28T11:09:09.241Z,6.30
2019-05-28T11:11:38.995Z,5.85
2019-05-28T11:14:08.745Z,5.40
2019-05-28T11:16:38.512Z,5.50
2019-05-28T11:19:08.209Z,5.58
2019-05-28T11:21:37.950Z,5.55
2019-05-28T11:24:07.722Z,5.62
2019-05-28T11:26:37.559Z,7.67
2019-05-28T11:29:07.374Z,5.70
2019-05-28T11:31:38.514Z,5.55
2019-05-28T11:34:08.245Z,6.30
2019-05-28T11:36:38.087Z,6.70
2019-05-28T11:39:10.629Z,6.40
2019-05-28T11:41:42.571Z,6.87
2019-05-28T11:44:13.018Z,7.42
2019-05-28T11:46:42.720Z,8.00
2019-05-28T11:49:12.449Z,7.65
2019-05-28T11:51:42.149Z,6.53
2019-05-28T11:54:11.905Z,5.97
2019-05-28T11:56:41.643Z,6.85
2019-05-28T11:59:11.465Z,7.77
2019-05-28T12:01:41.188Z,10.00
2019-05-28T12:04:10.918Z,8.27
2019-05-28T12:06:40.645Z,7.17
2019-05-28T12:09:10.486Z,7.87
2019-05-28T12:11:40.302Z,9.50
2019-05-28T12:14:10.389Z,9.27
2019-05-28T12:16:43.171Z,9.63
2019-05-28T12:19:12.907Z,9.30
2019-05-28T12:21:42.592Z,9.87
2019-05-28T12:24:12.319Z,9.33
2019-05-28T12:26:42.160Z,9.50
2019-05-28T12:29:11.841Z,8.30
2019-05-28T12:31:44.303Z,8.53
2019-05-28T12:34:14.938Z,8.50
2019-05-28T12:36:44.709Z,6.43
2019-05-28T12:39:14.405Z,7.30
2019-05-28T12:41:59.024Z,7.00
2019-05-28T12:44:17.343Z,7.33
2019-05-28T12:46:46.964Z,6.22
2019-05-28T12:49:16.687Z,6.47
2019-05-28T12:51:46.404Z,6.87
2019-05-28T12:54:16.219Z,7.53
2019-05-28T12:56:45.909Z,5.50
2019-05-28T12:59:15.638Z,4.92
2019-05-28T13:01:45.390Z,4.85
2019-05-28T13:04:15.119Z,5.12
2019-05-28T13:06:47.575Z,5.80
2019-05-28T13:09:17.326Z,5.35
2019-05-28T13:11:47.051Z,5.30
2019-05-28T13:14:16.814Z,5.08
2019-05-28T13:16:46.525Z,4.62
2019-05-28T13:19:16.219Z,4.20
2019-05-28T13:21:46.102Z,4.15
2019-05-28T13:24:15.797Z,4.28
2019-05-28T13:26:48.219Z,5.05
2019-05-28T13:29:17.996Z,4.37
2019-05-28T13:31:47.755Z,4.78
2019-05-28T13:34:17.458Z,4.53
2019-05-28T13:36:47.197Z,4.87
2019-05-28T13:39:16.935Z,4.67
2019-05-28T13:41:48.555Z,4.35
2019-05-28T13:44:18.299Z,4.15
2019-05-28T13:46:48.041Z,3.90
2019-05-28T13:49:17.803Z,3.90
2019-05-28T13:51:52.797Z,3.92
2019-05-28T13:54:21.458Z,3.90
2019-05-28T13:56:51.166Z,3.60
2019-05-28T13:59:20.876Z,3.60
2019-05-28T14:01:50.589Z,3.20
2019-05-28T14:04:20.271Z,3.55
2019-05-28T14:06:50.113Z,3.52
2019-05-28T14:09:19.965Z,3.00
2019-05-28T14:11:52.203Z,2.92
2019-05-28T14:14:21.929Z,3.02
2019-05-28T14:16:51.649Z,2.67
2019-05-28T14:19:21.460Z,2.80
2019-05-28T14:21:51.177Z,2.80
2019-05-28T14:24:20.890Z,2.90
2019-05-28T14:26:50.752Z,2.55
2019-05-28T14:29:20.448Z,2.85
2019-05-28T14:31:50.351Z,3.00
2019-05-28T14:34:20.048Z,3.17
2019-05-28T14:36:49.916Z,3.17
2019-05-28T14:39:19.683Z,3.50
2019-05-28T14:41:50.560Z,3.45
2019-05-28T14:44:20.241Z,3.17
2019-05-28T14:46:50.029Z,3.35
2019-05-28T14:49:19.728Z,3.70
2019-05-28T14:51:49.764Z,3.85
2019-05-28T14:54:19.498Z,4.12
2019-05-28T14:56:49.319Z,4.00
2019-05-28T14:59:19.086Z,4.73
2019-05-28T15:01:48.797Z,5.28
2019-05-28T15:04:18.508Z,5.10
2019-05-28T15:06:48.278Z,5.20
2019-05-28T15:09:21.242Z,5.03
2019-05-28T15:11:49.324Z,4.90
2019-05-28T15:14:19.091Z,4.70
2019-05-28T15:16:48.758Z,5.60
2019-05-28T15:19:18.460Z,5.20
2019-05-28T15:21:48.475Z,6.33
2019-05-28T15:24:18.479Z,7.20
2019-05-28T15:26:48.182Z,8.70
2019-05-28T15:29:17.954Z,7.23
2019-05-28T15:31:47.687Z,5.73
2019-05-28T15:34:17.400Z,4.93
2019-05-28T15:36:47.107Z,4.80
2019-05-28T15:39:16.960Z,4.73
2019-05-28T15:41:46.684Z,4.73
2019-05-28T15:44:16.466Z,5.40
2019-05-28T15:46:47.328Z,5.80
2019-05-28T15:49:17.111Z,6.10
2019-05-28T15:51:46.921Z,5.90
2019-05-28T15:54:16.605Z,6.10
2019-05-28T15:56:46.433Z,5.50
2019-05-28T15:59:16.186Z,5.00
2019-05-28T16:01:45.978Z,4.67
2019-05-28T16:04:15.849Z,5.07
2019-05-28T16:06:45.540Z,5.33
2019-05-28T16:09:15.276Z,6.50
2019-05-28T16:11:45.042Z,7.40
2019-05-28T16:14:14.732Z,6.80
2019-05-28T16:16:44.422Z,7.77
2019-05-28T16:19:14.185Z,10.10
2019-05-28T16:21:43.917Z,8.27
2019-05-28T16:24:13.655Z,8.57
2019-05-28T16:26:43.419Z,8.20
2019-05-28T16:29:13.157Z,7.60
2019-05-28T16:31:42.910Z,8.20
2019-05-28T16:34:12.668Z,9.30
2019-05-28T16:36:42.365Z,9.13
2019-05-28T16:39:12.119Z,7.50
2019-05-28T16:41:41.933Z,7.07
2019-05-28T16:44:11.587Z,8.70
2019-05-28T16:46:41.348Z,7.63
2019-05-28T16:49:11.135Z,5.90
2019-05-28T16:51:40.849Z,4.90
2019-05-28T16:54:19.151Z,4.20
2019-05-28T16:56:41.949Z,3.23
2019-05-28T16:59:11.666Z,3.90
2019-05-28T17:01:41.403Z,3.80
2019-05-28T17:04:11.150Z,3.07
2019-05-28T17:06:40.930Z,3.93
2019-05-28T17:09:10.694Z,3.80
2019-05-28T17:11:40.403Z,3.67
2019-05-28T17:14:10.074Z,4.00
2019-05-28T17:16:39.823Z,3.23
2019-05-28T17:19:09.553Z,3.50
2019-05-28T17:21:39.328Z,3.73
2019-05-28T17:24:09.043Z,3.50
2019-05-28T17:26:38.780Z,3.63
2019-05-28T17:29:08.519Z,3.10
2019-05-28T17:31:38.237Z,3.40
2019-05-28T17:34:07.970Z,3.60
2019-05-28T17:36:37.698Z,3.90
2019-05-28T17:39:08.777Z,3.90
2019-05-28T17:41:38.502Z,4.37
2019-05-28T17:44:08.315Z,4.40
2019-05-28T17:46:38.071Z,5.63
2019-05-28T17:49:07.784Z,6.37
2019-05-28T17:51:37.498Z,5.60
2019-05-28T17:54:07.274Z,5.13
2019-05-28T17:56:36.966Z,5.00
2019-05-28T17:59:06.725Z,4.83
2019-05-28T18:01:36.402Z,4.80
2019-05-28T18:04:06.130Z,4.93
2019-05-28T18:06:35.899Z,5.20
2019-05-28T18:09:07.636Z,5.50
2019-05-28T18:11:37.343Z,5.10
2019-05-28T18:14:07.089Z,5.07
2019-05-28T18:16:36.797Z,4.93
2019-05-28T18:19:06.665Z,4.83
2019-05-28T18:21:36.383Z,5.30
2019-05-28T18:24:07.769Z,5.80
2019-05-28T18:26:37.468Z,5.03
2019-05-28T18:29:07.279Z,5.90
2019-05-28T18:31:37.013Z,5.60
2019-05-28T18:34:06.794Z,7.30
2019-05-28T18:36:36.507Z,6.97
2019-05-28T18:39:08.045Z,8.40
2019-05-28T18:41:37.841Z,8.30
2019-05-28T18:44:07.573Z,8.67
2019-05-28T18:46:38.952Z,8.77
2019-05-28T18:49:09.755Z,9.13
2019-05-28T18:51:39.509Z,8.83
2019-05-28T18:54:09.327Z,9.30
2019-05-28T18:56:39.091Z,10.13
2019-05-28T18:59:08.825Z,10.27
2019-05-28T19:01:40.125Z,10.17
2019-05-28T19:04:09.947Z,10.40
2019-05-28T19:06:39.616Z,11.00
2019-05-28T19:09:11.373Z,10.90
2019-05-28T19:11:41.556Z,12.03
2019-05-28T19:14:11.372Z,11.60
2019-05-28T19:16:41.089Z,10.97
2019-05-28T19:19:10.857Z,11.63
2019-05-28T19:21:40.637Z,10.87
2019-05-28T19:24:10.346Z,10.90
2019-05-28T19:26:40.056Z,11.30
2019-05-28T19:29:09.788Z,11.03
2019-05-28T19:31:39.543Z,11.47
2019-05-28T19:34:09.618Z,10.87
2019-05-28T19:36:39.497Z,10.73
2019-05-28T19:39:09.369Z,11.73
2019-05-28T19:41:52.324Z,11.37
2019-05-28T19:44:10.491Z,11.30
2019-05-28T19:46:40.206Z,11.23
2019-05-28T19:49:10.831Z,12.30
2019-05-28T19:51:40.791Z,13.07
2019-05-28T19:54:10.559Z,12.63
2019-05-28T19:56:40.317Z,14.03
2019-05-28T19:59:12.254Z,13.40
2019-05-28T20:01:41.949Z,13.53
2019-05-28T20:04:11.713Z,14.43
2019-05-28T20:06:41.449Z,14.73
2019-05-28T20:09:11.154Z,15.67
2019-05-28T20:11:42.608Z,14.83
2019-05-28T20:14:12.403Z,15.67
2019-05-28T20:16:42.226Z,14.63
2019-05-28T20:19:11.894Z,15.67
2019-05-28T20:21:41.620Z,15.23
2019-05-28T20:24:11.352Z,16.07
2019-05-28T20:26:41.089Z,15.37
2019-05-28T20:29:11.213Z,15.70
2019-05-28T20:31:40.938Z,17.13
2019-05-28T20:34:10.697Z,16.27
2019-05-28T20:36:40.454Z,17.07
2019-05-28T20:39:10.222Z,16.47
2019-05-28T20:41:40.091Z,16.93
2019-05-28T20:44:10.501Z,18.27
2019-05-28T20:46:40.464Z,19.07
2019-05-28T20:49:10.995Z,21.10
2019-05-28T20:51:41.125Z,23.57
2019-05-28T20:54:10.867Z,21.03
2019-05-28T20:56:40.596Z,21.00
2019-05-28T20:59:10.342Z,21.60
2019-05-28T21:01:40.055Z,22.97
2019-05-28T21:04:09.865Z,22.50
2019-05-28T21:06:39.587Z,24.27
2019-05-28T21:09:12.786Z,23.87
2019-05-28T21:11:40.946Z,24.27
2019-05-28T21:14:11.064Z,24.97
2019-05-28T21:16:40.784Z,23.03
2019-05-28T21:19:10.545Z,21.73
2019-05-28T21:21:40.253Z,23.83
2019-05-28T21:24:10.004Z,24.30
2019-05-28T21:26:39.730Z,21.90
2019-05-28T21:29:11.051Z,22.17
2019-05-28T21:31:40.828Z,21.90
2019-05-28T21:34:10.537Z,22.67
2019-05-28T21:36:40.274Z,23.20
2019-05-28T21:39:11.099Z,24.23
2019-05-28T21:41:43.890Z,23.80
2019-05-28T21:44:13.654Z,27.47
2019-05-28T21:46:43.413Z,25.57
2019-05-28T21:49:13.126Z,25.93
2019-05-28T21:51:42.873Z,27.93
2019-05-28T21:54:13.160Z,27.60
2019-05-28T21:56:42.924Z,25.93
2019-05-28T21:59:12.622Z,26.93
2019-05-28T22:01:43.007Z,26.10
2019-05-28T22:04:12.712Z,26.07
2019-05-28T22:06:42.417Z,28.20
2019-05-28T22:09:12.172Z,28.53
2019-05-28T22:11:41.914Z,29.50
2019-05-28T22:14:11.689Z,30.10
2019-05-28T22:16:41.443Z,28.60
2019-05-28T22:19:11.197Z,29.07
2019-05-28T22:21:40.975Z,29.43
2019-05-28T22:24:10.677Z,30.37
2019-05-28T22:26:40.464Z,29.47
2019-05-28T22:29:10.174Z,32.17
2019-05-28T22:31:39.881Z,30.87
2019-05-28T22:34:09.634Z,33.00
2019-05-28T22:36:39.327Z,30.33
2019-05-28T22:39:09.447Z,34.30
2019-05-28T22:41:41.402Z,32.07
2019-05-28T22:44:12.761Z,32.57
2019-05-28T22:46:42.473Z,32.03
2019-05-28T22:49:12.202Z,32.17
2019-05-28T22:51:41.900Z,31.07
2019-05-28T22:54:11.675Z,31.17
2019-05-28T22:56:41.386Z,30.17
2019-05-28T22:59:11.118Z,29.80
2019-05-28T23:01:40.837Z,29.77
2019-05-28T23:04:10.578Z,28.73
2019-05-28T23:06:40.324Z,30.43
2019-05-28T23:09:10.042Z,30.03
2019-05-28T23:11:39.777Z,29.20
2019-05-28T23:14:10.326Z,30.53
2019-05-28T23:16:40.335Z,32.63
2019-05-28T23:19:10.917Z,34.40
2019-05-28T23:21:40.848Z,34.83
2019-05-28T23:24:11.396Z,37.07
2019-05-28T23:26:41.333Z,34.97
2019-05-28T23:29:12.022Z,35.33
2019-05-28T23:31:41.764Z,35.40
2019-05-28T23:34:12.573Z,36.67
2019-05-28T23:36:42.613Z,37.90
2019-05-28T23:39:13.218Z,34.83
2019-05-28T23:41:43.085Z,36.20
2019-05-28T23:44:13.888Z,35.97
2019-05-28T23:46:43.916Z,35.23
2019-05-28T23:49:14.518Z,32.57
2019-05-28T23:51:44.312Z,34.60
2019-05-28T23:54:14.082Z,30.80
2019-05-28T23:56:43.793Z,33.30
2019-05-28T23:59:13.958Z,35.63
